Latest Weather Observations for Scone Airport

IDN60801

Issued at 6:32 pm EST Saturday 25 April 2015 (issued every 30 minutes, with the page automatically refreshed every 10 minutes)

About weather observations | Map of weather stations | Latest weather observations for NSW | Other Formats
Station Details ID: 061363 Name: SCONE AIRPORT AWS Lat: -32.03 Lon: 150.83 Height: 221.4 m
Data from the previous 72 hours. | See also: Recent months at Scone Airport
Date/Time
EST
Temp
°C
App
Temp
°C
Dew
Point
Rel
Hum
%
Delta-T
°C
Wind Press
QNH
hPa
Press
MSL
hPa
Rain
since 9 am
mm
Dir
 
Spd
km/h
Gust
km/h
Spd
kts
Gust
kts
25/05:30pm 20.3 17.5 7.0 42 6.8 N 11 20 6 11 1005.4 1004.9 0.0
25/05:00pm 21.1 18.0 7.3 41 7.2 N 13 17 7 9 1005.4 1004.9 0.0
25/04:30pm 21.7 18.4 7.9 41 7.3 N 15 24 8 13 1005.2 1004.7 0.0
25/04:00pm 22.2 18.7 7.2 38 7.9 NNW 15 24 8 13 1005.3 1004.8 0.0
25/03:30pm 23.8 19.3 7.0 34 8.8 NW 20 30 11 16 1005.3 1004.8 0.0
25/03:00pm 24.5 21.0 7.2 33 9.2 NNW 15 24 8 13 1005.5 1005.0 0.0
25/02:30pm 23.9 20.1 7.5 35 8.7 NW 17 28 9 15 1005.7 1005.2 0.0
25/02:00pm 24.2 19.9 7.8 35 8.8 NW 20 28 11 15 1006.0 1005.5 0.0
25/01:30pm 24.3 20.2 8.7 37 8.5 NNW 20 28 11 15 1006.2 1005.7 0.0
25/01:00pm 23.7 17.8 6.0 32 9.1 NW 26 35 14 19 1006.7 1006.2 0.0
25/12:30pm 24.4 21.0 10.7 42 7.7 NW 19 26 10 14 1007.2 1006.6 0.0
25/12:00pm 23.4 18.3 7.5 36 8.4 NNW 24 33 13 18 1007.4 1006.8 0.0
25/11:30am 23.9 20.8 10.2 42 7.6 NNW 17 30 9 16 1007.8 1007.2 0.0
25/11:00am 23.3 20.4 9.7 42 7.5 NW 15 24 8 13 1008.5 1008.0 0.0
25/10:30am 22.1 21.2 10.6 48 6.4 SW 6 11 3 6 1008.9 1008.4 0.0
25/10:00am 21.0 21.0 11.1 53 5.5 W 2 7 1 4 1009.2 1008.7 0.0
25/09:30am 20.7 20.3 11.1 54 5.3 N 4 9 2 5 1009.5 1009.0 0.0
25/09:00am 19.0 19.6 11.8 63 4.0 CALM 0 6 0 3 1009.7 1009.2 0.0
25/08:30am 17.0 17.0 12.5 75 2.5 NNE 4 9 2 5 1009.6 1009.1 0.0
25/08:00am 14.2 14.6 11.4 83 1.5 CALM 0 0 0 0 1009.7 1009.2 0.0
25/07:30am 12.7 13.0 10.9 89 1.0 CALM 0 0 0 0 1009.5 1009.0 0.0
25/07:00am 10.1 9.3 9.5 96 0.3 N 4 6 2 3 1009.4 1008.9 0.0
25/06:30am 9.3 8.6 8.5 95 0.4 N 2 6 1 3 1009.1 1008.6 0.0
25/05:30am 9.7 9.3 8.3 91 0.7 CALM 0 0 0 0 1008.8 1008.3 0.0
25/05:00am 10.3 9.0 9.1 92 0.6 WNW 6 9 3 5 1008.7 1008.2 0.0
25/04:30am 10.0 9.7 8.8 92 0.6 CALM 0 0 0 0 1008.7 1008.2 0.0
25/04:00am 10.1 9.8 8.7 91 0.7 CALM 0 0 0 0 1008.7 1008.2 0.0
25/03:30am 10.3 8.8 8.6 89 0.8 WNW 6 7 3 4 1008.6 1008.1 0.0
25/03:00am 10.8 10.7 9.4 91 0.7 CALM 0 6 0 3 1008.7 1008.2 0.0
25/02:30am 10.8 10.6 9.1 89 0.9 CALM 0 0 0 0 1008.8 1008.3 0.0
25/02:00am 10.9 10.7 9.2 89 0.9 CALM 0 0 0 0 1009.0 1008.5 0.0
25/01:30am 11.3 10.4 9.4 88 1.0 N 4 6 2 3 1009.2 1008.7 0.0
25/01:00am 11.5 10.6 9.4 87 1.1 NNE 4 6 2 3 1009.3 1008.8 0.0
25/12:30am 12.7 11.6 10.1 84 1.4 NNW 6 7 3 4 1009.2 1008.7 0.0
25/12:00am 12.3 12.3 9.7 84 1.3 CALM 0 4 0 2 1009.1 1008.6 0.0
 
Date/Time
EST
Temp
°C
App
Temp
°C
Dew
Point
Rel
Hum
%
Delta-T
°C
Wind Press
QNH
hPa
Press
MSL
hPa
Rain
since 9 am
mm
Dir
 
Spd
km/h
Gust
km/h
Spd
kts
Gust
kts
24/11:30pm 13.2 12.8 9.6 79 1.9 ENE 2 6 1 3 1009.1 1008.6 0.0
24/11:00pm 14.4 14.3 9.4 72 2.6 CALM 0 6 0 3 1009.0 1008.5 0.0
24/10:30pm 17.8 16.0 9.4 58 4.4 NNW 9 13 5 7 1009.0 1008.5 0.0
24/10:00pm 18.6 16.4 9.4 55 4.9 NNW 11 13 6 7 1009.0 1008.5 0.0
24/09:30pm 18.6 16.5 9.7 56 4.8 NNW 11 15 6 8 1009.0 1008.5 0.0
24/09:00pm 19.3 16.9 10.0 55 5.0 NNW 13 17 7 9 1008.9 1008.4 0.0
24/08:30pm 18.8 16.9 10.4 58 4.6 NW 11 15 6 8 1008.6 1008.1 0.0
24/08:00pm 19.2 17.4 10.7 58 4.7 NW 11 19 6 10 1008.2 1007.7 0.0
24/07:30pm 18.3 16.7 11.6 65 3.7 WNW 11 20 6 11 1008.0 1007.5 0.0
24/07:00pm 18.2 16.4 12.0 67 3.5 WNW 13 15 7 8 1007.6 1007.0 0.0
24/06:30pm 19.1 18.0 11.9 63 4.0 NW 9 13 5 7 1007.0 1006.5 0.0
24/06:00pm 20.6 19.2 12.3 59 4.7 N 11 17 6 9 1006.7 1006.2 0.0
24/05:30pm 21.5 20.4 12.1 55 5.3 NNW 9 15 5 8 1006.4 1005.9 0.0
24/05:00pm 22.1 21.0 12.1 53 5.7 N 9 11 5 6 1006.2 1005.7 0.0
24/04:30pm 23.5 20.9 11.9 48 6.6 NW 17 22 9 12 1006.2 1005.7 0.0
24/04:00pm 24.0 22.1 12.9 50 6.5 NNW 15 22 8 12 1006.0 1005.5 0.0
24/03:30pm 24.0 22.6 13.5 52 6.2 NW 13 19 7 10 1006.1 1005.6 0.0
24/03:00pm 23.0 20.7 12.9 53 5.9 NNW 17 26 9 14 1006.3 1005.8 0.0
24/02:30pm 23.7 20.7 12.7 50 6.4 NW 20 32 11 17 1006.5 1006.0 0.0
24/02:00pm 23.4 21.1 13.0 52 6.1 WNW 17 22 9 12 1006.6 1006.1 0.0
24/01:30pm 23.7 21.1 13.3 52 6.1 NNW 19 32 10 17 1006.8 1006.3 0.0
24/01:00pm 23.2 20.1 12.2 50 6.3 NNW 20 33 11 18 1007.3 1006.7 0.0
24/12:30pm 23.5 20.1 13.7 54 5.8 NW 24 32 13 17 1007.7 1007.1 0.0
24/12:00pm 22.9 19.9 13.7 56 5.4 NW 22 32 12 17 1008.1 1007.6 0.0
24/11:30am 22.9 20.0 13.9 57 5.3 NW 22 28 12 15 1008.5 1008.0 0.0
24/11:00am 22.6 20.9 14.7 61 4.7 NW 17 24 9 13 1009.0 1008.5 0.0
24/10:30am 21.0 19.9 14.2 65 4.0 NNW 13 19 7 10 1009.4 1008.9 0.0
24/10:00am 20.8 21.1 15.1 70 3.4 NNW 7 13 4 7 1009.4 1008.9 0.0
24/09:30am 20.4 20.6 14.3 68 3.6 N 6 9 3 5 1009.5 1009.0 0.0
24/09:00am 18.6 19.0 14.7 78 2.3 NNE 6 9 3 5 1009.7 1009.2 0.2
24/08:30am 16.9 18.6 15.2 90 1.0 CALM 0 4 0 2 1009.7 1009.2 0.2
24/08:00am 15.0 16.5 14.7 98 0.2 CALM 0 0 0 0 1009.7 1009.2 0.2
24/07:30am 13.7 14.8 13.5 99 0.1 CALM 0 0 0 0 1009.6 1009.1 0.2
24/07:00am 12.6 12.0 12.3 98 0.2 WNW 7 9 4 5 1009.3 1008.8 0.2
24/06:30am 12.2 12.7 11.6 96 0.3 CALM 0 0 0 0 1008.9 1008.4 0.2
24/06:00am 12.4 13.0 11.8 96 0.3 CALM 0 0 0 0 1008.9 1008.4 0.2
24/05:30am 12.7 13.0 12.2 97 0.3 ESE 2 7 1 4 1008.9 1008.4 0.2
24/05:00am 12.7 13.0 12.2 97 0.3 WSW 2 6 1 3 1009.0 1008.5 0.2
24/04:30am 12.6 13.3 12.1 97 0.3 CALM 0 0 0 0 1009.0 1008.5 0.2
24/04:00am 12.5 13.1 11.9 96 0.3 CALM 0 0 0 0 1008.9 1008.4 0.2
24/03:30am 12.5 13.0 11.6 94 0.5 CALM 0 0 0 0 1008.9 1008.4 0.2
24/03:00am 12.5 12.9 11.4 93 0.6 CALM 0 0 0 0 1009.0 1008.5 0.2
24/02:30am 13.3 14.1 12.5 95 0.4 CALM 0 0 0 0 1009.3 1008.8 0.2
24/02:00am 13.4 14.3 12.8 96 0.3 CALM 0 0 0 0 1009.5 1009.0 0.2
24/01:30am 13.1 12.7 12.5 96 0.3 W 6 7 3 4 1009.6 1009.1 0.2
24/01:00am 13.0 13.7 12.2 95 0.4 CALM 0 0 0 0 1009.8 1009.3 0.2
24/12:30am 12.5 13.0 11.6 94 0.5 CALM 0 0 0 0 1009.9 1009.4 0.2
24/12:00am 12.5 12.3 11.9 96 0.3 ENE 4 9 2 5 1010.2 1009.7 0.2
 
Date/Time
EST
Temp
°C
App
Temp
°C
Dew
Point
Rel
Hum
%
Delta-T
°C
Wind Press
QNH
hPa
Press
MSL
hPa
Rain
since 9 am
mm
Dir
 
Spd
km/h
Gust
km/h
Spd
kts
Gust
kts
23/11:30pm 12.2 11.9 11.4 95 0.4 WNW 4 7 2 4 1010.1 1009.6 0.2
23/11:00pm 12.6 12.0 11.8 95 0.4 N 6 7 3 4 1010.4 1009.9 0.0
23/10:30pm 12.4 11.7 11.5 94 0.5 NE 6 7 3 4 1010.7 1010.2 0.0
23/10:00pm 12.3 11.5 11.0 92 0.7 NE 6 7 3 4 1011.0 1010.5 0.0
23/09:30pm 12.6 11.7 11.5 93 0.6 NNW 7 11 4 6 1011.2 1010.7 0.0
23/09:00pm 13.4 12.8 12.3 93 0.6 N 7 9 4 5 1011.4 1010.9 0.0
23/08:30pm 13.2 13.5 12.1 93 0.6 ENE 2 7 1 4 1011.1 1010.6 0.0
23/08:00pm 13.5 13.0 12.1 91 0.8 WNW 6 7 3 4 1011.1 1010.6 0.0
23/07:30pm 14.7 14.2 12.7 88 1.1 NW 7 9 4 5 1010.7 1010.2 0.0
23/07:00pm 15.3 16.2 12.8 85 1.4 CALM 0 6 0 3 1010.8 1010.3 0.0
23/06:30pm 16.0 15.7 12.7 81 1.8 N 6 7 3 4 1010.6 1010.1 0.0
23/06:00pm 17.0 17.8 12.7 76 2.4 CALM 0 0 0 0 1010.1 1009.6 0.0
23/05:30pm 18.8 19.7 13.0 69 3.3 CALM 0 0 0 0 1010.0 1009.5 0.0
23/05:00pm 20.4 20.8 12.4 60 4.5 E 2 6 1 3 1009.7 1009.2 0.0
23/04:30pm 20.4 20.2 13.6 65 3.9 E 7 9 4 5 1009.5 1009.0 0.0
23/04:00pm 20.8 20.1 12.0 57 5.0 E 7 9 4 5 1009.5 1009.0 0.0
23/03:30pm 21.2 21.9 12.3 57 5.1 CALM 0 7 0 4 1009.6 1009.1 0.0
23/03:00pm 21.2 22.1 12.9 59 4.8 CALM 0 6 0 3 1009.8 1009.3 0.0
23/02:30pm 21.6 20.1 11.9 54 5.5 NW 11 17 6 9 1010.0 1009.5 0.0
23/02:00pm 21.4 20.5 12.5 57 5.1 NW 9 13 5 7 1010.2 1009.7 0.0
23/01:30pm 21.2 20.8 13.1 60 4.7 NW 7 13 4 7 1010.4 1009.9 0.0
23/01:00pm 20.2 20.4 11.9 59 4.7 W 2 6 1 3 1010.8 1010.3 0.0
23/12:30pm 19.9 19.5 12.4 62 4.2 W 6 9 3 5 1011.2 1010.7 0.0
23/12:00pm 20.0 19.8 13.0 64 4.0 W 6 11 3 6 1011.7 1011.2 0.0
23/11:30am 19.5 18.9 12.3 63 4.1 N 7 9 4 5 1012.1 1011.6 0.0
23/11:00am 18.8 19.0 13.0 69 3.3 WNW 4 9 2 5 1012.6 1012.1 0.0
23/10:30am 19.2 19.5 13.4 69 3.3 W 4 9 2 5 1012.7 1012.2 0.0
23/10:00am 18.2 18.0 13.1 72 2.9 NE 6 7 3 4 1012.9 1012.4 0.0
23/09:30am 17.3 17.9 13.2 77 2.3 ESE 2 6 1 3 1013.1 1012.6 0.0
23/09:00am 16.8 16.5 13.3 80 2.0 S 7 11 4 6 1013.1 1012.6 5.2
23/08:30am 16.6 17.9 14.1 85 1.4 CALM 0 0 0 0 1013.1 1012.6 5.2
23/08:00am 16.1 17.5 14.3 89 1.0 CALM 0 0 0 0 1013.1 1012.6 5.2
23/07:30am 15.8 16.6 14.8 94 0.6 ENE 4 9 2 5 1012.9 1012.4 5.2
23/07:00am 15.1 15.4 14.5 96 0.3 NNE 6 9 3 5 1012.6 1012.1 5.2
23/06:30am 14.8 15.2 13.8 94 0.6 N 4 6 2 3 1012.4 1011.9 5.2
23/06:00am 15.1 15.2 14.0 93 0.6 NNE 6 7 3 4 1012.2 1011.7 5.2
23/05:30am 15.1 15.3 14.1 94 0.6 NNW 6 7 3 4 1012.0 1011.5 5.2
23/05:00am 14.9 16.1 13.9 94 0.6 CALM 0 0 0 0 1011.6 1011.1 5.2
23/04:30am 15.0 16.3 14.0 94 0.6 CALM 0 0 0 0 1011.5 1011.0 5.2
23/04:00am 15.0 15.9 14.0 94 0.6 NNE 2 7 1 4 1011.2 1010.7 5.2
23/03:30am 15.0 15.1 14.0 94 0.6 NE 6 7 3 4 1011.3 1010.8 5.2
23/03:00am 15.1 16.3 13.8 92 0.7 CALM 0 0 0 0 1011.3 1010.8 5.2
23/02:30am 15.2 16.3 13.6 90 0.9 CALM 0 6 0 3 1011.2 1010.7 5.0
23/02:00am 15.6 15.3 13.3 86 1.3 NNW 7 13 4 7 1011.4 1010.9 5.0
23/01:30am 15.3 16.0 13.5 89 1.0 NNE 2 9 1 5 1011.5 1011.0 5.0
23/01:00am 15.1 14.9 13.6 91 0.8 NW 7 9 4 5 1011.5 1011.0 5.0
23/12:30am 15.1 14.4 13.3 89 1.0 NW 9 13 5 7 1011.6 1011.1 5.0
23/12:00am 15.1 14.7 13.1 88 1.1 NNW 7 9 4 5 1011.9 1011.4 5.0
 
Date/Time
EST
Temp
°C
App
Temp
°C
Dew
Point
Rel
Hum
%
Delta-T
°C
Wind Press
QNH
hPa
Press
MSL
hPa
Rain
since 9 am
mm
Dir
 
Spd
km/h
Gust
km/h
Spd
kts
Gust
kts
22/11:30pm 15.2 14.5 13.2 88 1.1 NNW 9 11 5 6 1012.1 1011.6 5.0
22/11:00pm 15.1 14.8 13.3 89 1.0 WNW 7 11 4 6 1012.5 1012.0 5.0
22/10:30pm 15.4 15.3 13.8 90 0.9 N 7 11 4 6 1012.6 1012.1 5.0
22/10:00pm 15.3 15.9 14.2 93 0.6 NNE 4 9 2 5 1012.9 1012.4 5.0
22/09:30pm 14.8 15.0 14.3 97 0.3 N 6 9 3 5 1013.0 1012.5 5.0
22/09:00pm 14.9 14.9 14.3 96 0.3 NNW 7 11 4 6 1013.0 1012.5 4.8
22/08:30pm 14.8 15.0 14.2 96 0.3 NNW 6 7 3 4 1012.9 1012.4 4.8
22/08:00pm 14.7 14.9 14.2 97 0.3 NW 6 11 3 6 1012.9 1012.4 4.8
22/07:30pm 14.6 14.5 14.0 96 0.3 NNW 7 9 4 5 1012.9 1012.4 4.6
22/07:00pm 14.7 14.7 14.1 96 0.3 NNE 7 9 4 5 1012.8 1012.3 4.6

Other Formats:

Comma delimited format used in spreadsheet applications
http://www.bom.gov.au/fwo/IDN60801/IDN60801.95758.axf

JavaScript Object Notation format (JSON) in row-major order
http://www.bom.gov.au/fwo/IDN60801/IDN60801.95758.json